Time;durP1;ratioP1;P1;durP2;ratioP2;P2;SDS_P1;SDS_P2;PMS_P1;PMS_P2;Temp;Humidity;BMP_temperature;BMP_pressure;BME280_temperature;BME280_humidity;BME280_pressure;Samples;Min_cycle;Max_cycle;Signal;HPM_P1;HPM_P2
2022/03/08 00:01:28;;;;;;;16.00;10.13;;;;;;;-1.02;100.00;61895.03;5032266;28;20226;-76
2022/03/08 00:03:55;;;;;;;20.17;10.63;;;;;;;-0.95;100.00;61899.19;5034642;28;20202;-75
2022/03/08 00:06:24;;;;;;;17.83;11.25;;;;;;;-1.06;100.00;61888.44;5044168;28;20202;-75
2022/03/08 00:08:51;;;;;;;20.00;11.32;;;;;;;-0.90;100.00;61904.28;5043777;28;20202;-75
2022/03/08 00:11:18;;;;;;;17.48;11.23;;;;;;;-1.01;100.00;61893.53;5040891;28;20206;-75
2022/03/08 00:13:45;;;;;;;14.70;10.52;;;;;;;-0.92;100.00;61907.75;5046195;28;20222;-76
2022/03/08 00:16:12;;;;;;;17.95;10.52;;;;;;;-0.86;100.00;61913.88;5053075;28;20216;-75
2022/03/08 00:18:39;;;;;;;18.50;11.05;;;;;;;-0.74;100.00;61931.19;5050910;28;20202;-75
2022/03/08 00:21:06;;;;;;;17.92;10.48;;;;;;;-0.75;100.00;61919.66;5038456;28;20199;-75
2022/03/08 00:23:34;;;;;;;16.40;11.23;;;;;;;-0.64;100.00;61936.41;5042121;28;20554;-74
2022/03/08 00:26:01;;;;;;;17.98;11.20;;;;;;;-0.56;100.00;61942.13;5043617;28;20216;-76
2022/03/08 00:28:28;;;;;;;19.98;9.85;;;;;;;-0.60;100.00;61938.00;5042231;28;20390;-75
2022/03/08 00:30:56;;;;;;;17.30;9.98;;;;;;;-0.54;100.00;61938.66;5040933;28;20206;-78
2022/03/08 00:33:23;;;;;;;15.25;9.55;;;;;;;-0.51;100.00;61949.22;5043561;28;20268;-76
2022/03/08 00:35:50;;;;;;;14.85;10.70;;;;;;;-0.52;100.00;61953.72;5044057;28;20201;-75
2022/03/08 00:38:17;;;;;;;14.35;9.95;;;;;;;-0.43;100.00;61952.94;5034810;28;20442;-75
2022/03/08 00:40:46;;;;;;;17.10;10.05;;;;;;;-0.58;100.00;61937.56;5035085;28;20294;-76
2022/03/08 00:43:13;;;;;;;15.55;10.85;;;;;;;-0.62;100.00;61938.47;5043545;28;20222;-75
2022/03/08 00:45:40;;;;;;;18.80;10.88;;;;;;;-0.59;100.00;61938.53;5041447;28;20225;-76
2022/03/08 00:48:07;;;;;;;16.73;9.55;;;;;;;-0.80;100.00;61920.03;5031679;28;20246;-76
2022/03/08 00:50:38;;;;;;;14.20;9.35;;;;;;;-1.01;100.00;61898.53;5043812;28;20533;-78
2022/03/08 00:53:05;;;;;;;16.10;10.40;;;;;;;-1.06;100.00;61893.41;5026496;28;20245;-76
2022/03/08 00:55:34;;;;;;;16.08;10.57;;;;;;;-0.96;100.00;61906.16;5032394;28;20260;-76
2022/03/08 00:58:04;;;;;;;15.68;9.63;;;;;;;-0.88;100.00;61914.34;5041117;28;20542;-76
2022/03/08 01:00:32;;;;;;;15.35;9.85;;;;;;;-0.88;100.00;61909.34;5042773;28;20229;-76
2022/03/08 01:02:59;;;;;;;17.88;10.20;;;;;;;-0.88;100.00;61906.84;5042749;28;20225;-75
2022/03/08 01:05:26;;;;;;;14.30;10.52;;;;;;;-0.77;100.00;61920.09;5029657;28;20249;-76
2022/03/08 01:07:53;;;;;;;15.98;9.77;;;;;;;-0.73;100.00;61926.69;5031624;28;20253;-76
2022/03/08 01:10:22;;;;;;;15.10;9.35;;;;;;;-0.61;100.00;61936.47;5043859;28;20198;-76
2022/03/08 01:12:51;;;;;;;15.85;9.00;;;;;;;-0.57;100.00;61938.09;5040412;28;20233;-76
2022/03/08 01:15:20;;;;;;;18.08;11.18;;;;;;;-0.87;100.00;61910.38;5039617;28;20253;-75
2022/03/08 01:17:48;;;;;;;16.10;9.82;;;;;;;-0.88;100.00;61908.84;5043130;28;20309;-75
2022/03/08 01:20:15;;;;;;;14.02;9.80;;;;;;;-1.05;100.00;61891.94;5032881;28;20244;-75
2022/03/08 01:22:42;;;;;;;15.93;10.23;;;;;;;-1.09;100.00;61887.34;5035913;28;20268;-75
2022/03/08 01:25:12;;;;;;;20.45;12.43;;;;;;;-0.99;100.00;61897.56;5040397;28;20198;-76
2022/03/08 01:27:39;;;;;;;15.40;10.60;;;;;;;-0.89;100.00;61905.31;5042275;28;20528;-76
2022/03/08 01:30:09;;;;;;;16.05;10.25;;;;;;;-0.97;100.00;61897.66;5039031;28;20210;-76
2022/03/08 01:32:38;;;;;;;16.75;10.07;;;;;;;-1.05;100.00;61888.94;5033080;28;20222;-76
2022/03/08 01:35:06;;;;;;;15.07;9.90;;;;;;;-0.89;100.00;61908.31;5046409;28;20234;-76
2022/03/08 01:37:33;;;;;;;17.25;11.25;;;;;;;-0.86;100.00;61915.88;5047231;28;20284;-75
2022/03/08 01:40:00;;;;;;;17.00;10.93;;;;;;;-0.72;100.00;61923.22;5043961;28;20506;-76
2022/03/08 01:42:27;;;;;;;18.23;11.38;;;;;;;-0.91;100.00;61910.75;5044088;28;20218;-76
2022/03/08 01:45:02;;;;;;;18.60;11.60;;;;;;;-0.99;100.00;61897.56;5058012;28;20194;-75
2022/03/08 01:47:36;;;;;;;16.80;10.65;;;;;;;-0.89;100.00;61905.81;5060179;28;20264;-76
2022/03/08 01:53:16;;;;;;;18.73;11.40;;;;;;;-0.87;100.00;61915.38;5011751;28;20233;-76
2022/03/08 01:55:43;;;;;;;16.63;10.68;;;;;;;-0.76;100.00;61919.13;5040462;28;20286;-77
2022/03/08 01:58:10;;;;;;;19.10;11.15;;;;;;;-0.83;100.00;61911.47;5054334;28;20206;-77
2022/03/08 02:00:37;;;;;;;20.65;12.15;;;;;;;-0.68;100.00;61934.31;5059157;28;20208;-75
2022/03/08 02:03:10;;;;;;;19.75;10.63;;;;;;;-0.71;100.00;61929.25;5052196;28;20214;-75
2022/03/08 02:05:38;;;;;;;20.30;11.45;;;;;;;-0.57;100.00;61940.59;5040070;28;20203;-76
2022/03/08 02:08:05;;;;;;;20.52;12.13;;;;;;;-0.63;100.00;61939.94;5048864;28;20228;-75
2022/03/08 02:10:32;;;;;;;18.80;11.80;;;;;;;-0.68;100.00;61932.34;5049258;28;20194;-76
2022/03/08 02:12:59;;;;;;;16.17;10.68;;;;;;;-0.77;100.00;61922.59;5038573;28;20227;-76
2022/03/08 02:15:29;;;;;;;16.42;11.00;;;;;;;-0.72;100.00;61923.22;5046445;28;20453;-76
2022/03/08 02:17:58;;;;;;;16.23;11.27;;;;;;;-0.64;100.00;61930.91;5044402;28;20236;-77
2022/03/08 02:20:26;;;;;;;20.08;11.18;;;;;;;-0.64;100.00;61936.41;5046089;28;20206;-75
2022/03/08 02:22:54;;;;;;;15.93;9.63;;;;;;;-0.57;100.00;61940.59;5046244;28;20245;-76
2022/03/08 02:25:23;;;;;;;17.20;10.50;;;;;;;-0.54;100.00;61944.16;5045632;28;20504;-76
2022/03/08 02:27:52;;;;;;;19.33;11.95;;;;;;;-0.60;100.00;61935.00;5033752;28;20289;-75
2022/03/08 02:30:20;;;;;;;16.17;11.63;;;;;;;-0.50;100.00;61950.75;5038289;28;20205;-76
2022/03/08 02:32:48;;;;;;;18.73;11.50;;;;;;;-0.52;100.00;61950.72;5044653;28;20234;-76
2022/03/08 02:35:16;;;;;;;18.38;10.90;;;;;;;-0.49;100.00;61951.78;5044900;28;20245;-76
2022/03/08 02:37:45;;;;;;;17.40;9.98;;;;;;;-0.48;100.00;61949.78;5045476;28;20297;-76
2022/03/08 02:40:16;;;;;;;14.88;10.52;;;;;;;-0.52;100.00;61948.69;5038243;28;20241;-76
2022/03/08 02:42:43;;;;;;;14.85;9.70;;;;;;;-0.53;100.00;61944.66;5028173;28;20396;-76
2022/03/08 02:45:12;;;;;;;19.83;11.98;;;;;;;-0.50;100.00;61953.25;5044493;28;20224;-77
2022/03/08 02:47:40;;;;;;;18.40;11.23;;;;;;;-0.44;100.00;61954.41;5042826;28;20225;-76
2022/03/08 02:50:09;;;;;;;19.65;12.07;;;;;;;-0.43;100.00;61955.44;5026753;28;20270;-76
2022/03/08 02:52:37;;;;;;;21.65;13.02;;;;;;;-0.47;100.00;61956.34;5038434;28;20530;-76
2022/03/08 02:55:05;;;;;;;21.02;12.32;;;;;;;-0.45;100.00;61953.38;5044966;28;20229;-77
2022/03/08 02:57:34;;;;;;;18.48;11.23;;;;;;;-0.50;100.00;61948.25;5042057;28;20282;-77
2022/03/08 03:00:02;;;;;;;16.33;10.50;;;;;;;-0.52;100.00;61953.22;5036667;28;20252;-76
2022/03/08 03:02:29;;;;;;;21.63;12.65;;;;;;;-0.48;100.00;61952.81;5043572;28;20225;-76
2022/03/08 03:04:56;;;;;;;15.43;10.15;;;;;;;-0.51;100.00;61944.75;5036037;28;20209;-77
2022/03/08 03:07:24;;;;;;;15.35;11.55;;;;;;;-0.56;100.00;61942.13;5040370;28;20258;-77
2022/03/08 03:09:51;;;;;;;19.38;11.43;;;;;;;-0.52;100.00;61951.19;5033593;28;20206;-77
2022/03/08 03:12:19;;;;;;;15.30;10.10;;;;;;;-0.52;100.00;61948.22;5038222;28;20221;-76
2022/03/08 03:14:47;;;;;;;17.95;11.23;;;;;;;-0.46;100.00;61951.84;5041184;28;20538;-75
2022/03/08 03:17:14;;;;;;;23.95;11.70;;;;;;;-0.45;100.00;61952.88;5039488;28;20235;-76
2022/03/08 03:19:41;;;;;;;19.60;10.88;;;;;;;-0.35;100.00;61965.63;5035512;28;20591;-76
2022/03/08 03:22:08;;;;;;;24.50;11.68;;;;;;;-0.41;100.00;61956.97;5043191;28;20264;-75
2022/03/08 03:24:35;;;;;;;17.27;10.55;;;;;;;-0.44;100.00;61954.41;5026933;28;20245;-76
2022/03/08 03:27:02;;;;;;;17.40;10.23;;;;;;;-0.34;100.00;61961.63;5030886;28;20275;-76
2022/03/08 03:29:29;;;;;;;17.95;11.57;;;;;;;-0.37;100.00;61969.09;5043076;28;20210;-76
2022/03/08 03:31:58;;;;;;;19.30;11.57;;;;;;;-0.39;100.00;61956.50;5046248;28;20224;-76
2022/03/08 03:34:25;;;;;;;17.30;10.60;;;;;;;-0.37;100.00;61959.09;5049650;28;20271;-76
2022/03/08 03:36:52;;;;;;;17.02;10.98;;;;;;;-0.34;100.00;61959.13;5050636;28;20499;-76
2022/03/08 03:39:19;;;;;;;22.02;11.55;;;;;;;-0.33;100.00;61967.66;5036719;28;20207;-74
2022/03/08 03:41:46;;;;;;;22.30;11.98;;;;;;;-0.41;100.00;61956.97;5038624;28;20229;-75
2022/03/08 03:44:13;;;;;;;19.02;11.93;;;;;;;-0.41;100.00;61957.47;5043531;28;20248;-76
2022/03/08 03:46:40;;;;;;;20.23;12.32;;;;;;;-0.34;100.00;61961.63;5044191;28;20264;-76
2022/03/08 03:49:08;;;;;;;22.23;13.65;;;;;;;-0.29;100.00;61972.28;5045367;28;20521;-76
2022/03/08 03:51:35;;;;;;;19.20;11.88;;;;;;;-0.26;100.00;61974.84;5046454;28;20284;-76
2022/03/08 03:54:02;;;;;;;22.15;12.32;;;;;;;-0.27;100.00;61971.81;5043101;28;20202;-77
2022/03/08 03:56:29;;;;;;;20.98;12.32;;;;;;;-0.31;100.00;61972.72;5043204;28;20202;-75
2022/03/08 03:58:56;;;;;;;20.92;12.00;;;;;;;-0.38;100.00;61960.53;5024471;28;20542;-75
2022/03/08 04:01:23;;;;;;;19.60;12.75;;;;;;;-0.35;100.00;61963.13;5032087;28;20503;-76
2022/03/08 04:03:50;;;;;;;21.08;13.00;;;;;;;-0.32;100.00;61964.19;5039960;28;20207;-76
2022/03/08 04:06:19;;;;;;;24.02;13.93;;;;;;;-0.38;100.00;61963.03;5035223;28;20375;-75
2022/03/08 04:08:46;;;;;;;23.45;13.15;;;;;;;-0.37;100.00;61958.56;5043356;28;20201;-75
2022/03/08 04:11:13;;;;;;;23.17;13.50;;;;;;;-0.32;100.00;61961.69;5038774;28;20447;-76
2022/03/08 04:13:40;;;;;;;21.70;13.77;;;;;;;-0.20;100.00;61978.47;5043926;28;20391;-76
2022/03/08 04:16:07;;;;;;;26.65;14.13;;;;;;;-0.21;100.00;61977.47;5042771;28;20234;-76
2022/03/08 04:18:34;;;;;;;17.55;12.35;;;;;;;-0.20;100.00;61980.97;5043689;28;20218;-75
2022/03/08 04:21:01;;;;;;;19.95;12.95;;;;;;;-0.26;100.00;61975.34;5043659;28;20194;-76
2022/03/08 04:23:29;;;;;;;22.05;13.18;;;;;;;-0.22;100.00;61976.44;5042801;28;20284;-76
2022/03/08 04:25:56;;;;;;;22.17;13.35;;;;;;;-0.29;100.00;61966.75;5031352;28;20221;-75
2022/03/08 04:28:23;;;;;;;23.17;14.27;;;;;;;-0.31;100.00;61972.72;5039244;28;20428;-75
2022/03/08 04:30:50;;;;;;;24.90;12.90;;;;;;;-0.31;100.00;61967.72;5042232;28;20236;-76
2022/03/08 04:33:17;;;;;;;20.15;12.80;;;;;;;-0.50;100.00;61945.25;5041936;28;20264;-75
2022/03/08 04:35:43;;;;;;;21.20;13.13;;;;;;;-0.57;100.00;61941.09;5044349;28;20234;-76
2022/03/08 04:38:11;;;;;;;16.55;12.27;;;;;;;-0.56;100.00;61941.59;5029695;28;20547;-75
2022/03/08 04:40:39;;;;;;;22.10;12.65;;;;;;;-0.54;100.00;61946.16;5034719;28;20236;-76
2022/03/08 04:43:06;;;;;;;19.85;13.10;;;;;;;-0.54;100.00;61949.16;5040603;28;20272;-76
2022/03/08 04:45:33;;;;;;;22.80;13.43;;;;;;;-0.47;100.00;61953.31;5051366;28;20206;-76
2022/03/08 04:47:59;;;;;;;22.20;13.85;;;;;;;-0.61;100.00;61938.97;5048220;28;20218;-75
2022/03/08 04:50:26;;;;;;;23.75;12.88;;;;;;;-0.49;100.00;61949.28;5052768;28;20245;-76
2022/03/08 04:52:53;;;;;;;28.40;14.50;;;;;;;-0.46;100.00;61951.84;5040565;28;20450;-76
2022/03/08 04:55:21;;;;;;;23.80;13.90;;;;;;;-0.45;100.00;61948.38;5041828;28;20234;-75
2022/03/08 04:57:50;;;;;;;23.38;14.88;;;;;;;-0.39;100.00;61959.53;5043611;28;20221;-74
2022/03/08 05:00:17;;;;;;;24.10;14.48;;;;;;;-0.36;100.00;61970.09;5038291;28;20198;-75
2022/03/08 05:02:46;;;;;;;24.73;13.38;;;;;;;-0.36;100.00;61962.09;5040325;28;20288;-74
2022/03/08 05:05:15;;;;;;;21.95;13.57;;;;;;;-0.43;100.00;61954.94;5046158;28;20196;-75
2022/03/08 05:07:42;;;;;;;23.55;13.85;;;;;;;-0.37;100.00;61956.06;5045127;28;20594;-75
2022/03/08 05:10:12;;;;;;;24.10;13.55;;;;;;;-0.39;100.00;61962.03;5042530;28;20202;-75
2022/03/08 05:12:39;;;;;;;22.73;12.43;;;;;;;-0.36;100.00;61962.09;5048473;28;20222;-76
2022/03/08 05:15:10;;;;;;;25.08;14.38;;;;;;;-0.37;100.00;61963.56;5036784;28;20234;-75
2022/03/08 05:17:37;;;;;;;24.50;12.98;;;;;;;-0.41;100.00;61959.47;5040463;28;20261;-75
2022/03/08 05:20:05;;;;;;;23.42;14.18;;;;;;;-0.37;100.00;61963.56;5035178;28;20211;-74
2022/03/08 05:22:32;;;;;;;21.33;13.07;;;;;;;-0.38;100.00;61960.53;5029352;28;20284;-75
2022/03/08 05:24:59;;;;;;;24.63;13.48;;;;;;;-0.36;100.00;61964.59;5034967;28;20208;-76
2022/03/08 05:27:26;;;;;;;21.65;13.63;;;;;;;-0.36;100.00;61962.59;5043801;28;20233;-76
2022/03/08 05:29:53;;;;;;;23.25;13.05;;;;;;;-0.39;100.00;61956.50;5039288;28;20286;-76
2022/03/08 05:32:21;;;;;;;21.08;13.15;;;;;;;-0.66;100.00;61931.38;5045931;28;20259;-76
2022/03/08 05:34:48;;;;;;;22.98;13.23;;;;;;;-0.62;100.00;61938.47;5046034;28;20268;-75
2022/03/08 05:37:15;;;;;;;24.52;13.88;;;;;;;-0.51;100.00;61944.75;5046566;28;20268;-76
2022/03/08 05:39:42;;;;;;;29.08;15.30;;;;;;;-0.40;100.00;61958.50;5036236;28;20253;-76
2022/03/08 05:42:09;;;;;;;21.65;13.20;;;;;;;-0.25;100.00;61970.84;5046419;28;20232;-75
2022/03/08 05:44:36;;;;;;;23.33;13.45;;;;;;;-0.26;100.00;61975.34;5045298;28;20248;-75
2022/03/08 05:47:04;;;;;;;24.05;14.65;;;;;;;-0.15;100.00;61986.09;5039964;28;20214;-76
2022/03/08 05:49:32;;;;;;;21.38;13.60;;;;;;;-0.04;100.00;61995.41;5046066;28;20208;-74
2022/03/08 05:51:59;;;;;;;22.25;13.52;;;;;;;0.03;100.00;62002.56;5028169;28;20232;-76
2022/03/08 05:54:26;;;;;;;22.33;13.82;;;;;;;0.11;100.00;62010.25;5040847;28;20213;-75
2022/03/08 05:56:53;;;;;;;24.55;14.68;;;;;;;0.14;100.00;62017.81;5045564;28;20238;-75
2022/03/08 05:59:20;;;;;;;24.77;15.18;;;;;;;0.01;100.00;61997.50;5045005;28;20205;-76
2022/03/08 06:01:47;;;;;;;23.67;15.27;;;;;;;-0.04;100.00;61997.38;5037696;28;20293;-75
2022/03/08 06:04:14;;;;;;;27.83;14.85;;;;;;;-0.02;100.00;61997.44;5046138;28;20209;-75
2022/03/08 06:06:42;;;;;;;30.25;17.17;;;;;;;-0.24;100.00;61976.88;5046337;28;20247;-76
2022/03/08 06:09:09;;;;;;;21.17;13.90;;;;;;;0.02;100.00;62003.53;5046260;28;20201;-75
2022/03/08 06:11:36;;;;;;;24.85;14.75;;;;;;;0.15;100.00;62018.84;5038492;28;20225;-76
2022/03/08 06:14:03;;;;;;;20.48;13.07;;;;;;;0.13;100.00;62014.28;5044571;28;20194;-77
2022/03/08 06:16:29;;;;;;;19.60;12.85;;;;;;;0.28;100.00;62029.66;5044889;28;20291;-76
2022/03/08 06:18:56;;;;;;;18.80;12.98;;;;;;;0.50;100.00;62050.22;5044498;28;20198;-76
2022/03/08 06:21:24;;;;;;;19.45;13.07;;;;;;;0.60;100.00;62060.47;5037022;28;20495;-77
2022/03/08 06:23:52;;;;;;;24.52;13.57;;;;;;;0.64;100.00;62066.56;5042770;28;20259;-76
2022/03/08 06:26:19;;;;;;;17.13;11.35;;;;;;;0.74;100.00;62074.31;5045375;28;20198;-78
2022/03/08 06:28:46;;;;;;;20.23;12.38;;;;;;;0.68;100.00;62070.66;5047056;28;20203;-80
2022/03/08 06:31:13;;;;;;;21.70;13.15;;;;;;;0.38;100.00;62035.41;5047629;28;20200;-80
2022/03/08 06:33:40;;;;;;;25.08;14.90;;;;;;;0.71;100.00;62071.22;5047677;28;20214;-79
2022/03/08 06:36:07;;;;;;;22.48;13.77;;;;;;;0.81;100.00;62082.00;5048557;28;20276;-79
2022/03/08 06:38:34;;;;;;;24.45;14.43;;;;;;;0.98;100.00;62101.44;5045836;28;20217;-80
2022/03/08 06:41:02;;;;;;;20.50;12.30;;;;;;;1.10;100.00;62113.75;5047535;28;20202;-79
2022/03/08 06:43:29;;;;;;;18.88;12.68;;;;;;;0.96;100.00;62097.41;5044717;28;20260;-79
2022/03/08 06:45:56;;;;;;;19.27;12.57;;;;;;;0.93;100.00;62096.31;5049495;28;20186;-77
2022/03/08 06:48:23;;;;;;;21.35;13.70;;;;;;;1.05;100.00;62106.63;5053613;28;20217;-78
2022/03/08 06:50:50;;;;;;;19.42;12.95;;;;;;;1.20;100.00;62121.50;5049977;28;20194;-78
2022/03/08 06:53:17;;;;;;;20.92;12.90;;;;;;;0.95;100.00;62098.34;5047367;28;20230;-79
2022/03/08 06:55:44;;;;;;;23.25;11.70;;;;;;;1.07;100.00;62108.16;5052335;28;20545;-78
2022/03/08 06:58:12;;;;;;;21.05;13.20;;;;;;;0.91;100.00;62091.75;5045916;28;20238;-77
2022/03/08 07:00:39;;;;;;;21.98;12.45;;;;;;;0.44;100.00;62046.06;5047543;28;20245;-79
2022/03/08 07:03:06;;;;;;;23.17;12.90;;;;;;;0.90;100.00;62093.75;5041604;28;20244;-77
2022/03/08 07:05:33;;;;;;;17.05;11.00;;;;;;;1.25;100.00;62128.63;5048293;28;20194;-75
2022/03/08 07:08:00;;;;;;;20.05;13.73;;;;;;;1.06;100.00;62104.63;5050424;28;20250;-77
2022/03/08 07:10:27;;;;;;;20.58;11.98;;;;;;;0.67;100.00;62069.66;5050846;28;20197;-76
2022/03/08 07:12:54;;;;;;;18.30;12.43;;;;;;;0.79;100.00;62079.97;5047730;28;20214;-76
2022/03/08 07:15:24;;;;;;;19.73;12.52;;;;;;;1.19;100.00;62115.47;5047738;28;20252;-75
2022/03/08 07:17:51;;;;;;;18.13;11.65;;;;;;;1.32;100.00;62136.31;5046914;28;20229;-76
2022/03/08 07:20:26;;;;;;;21.55;13.13;;;;;;;0.82;100.00;62082.53;5047502;28;20295;-77
2022/03/08 07:22:53;;;;;;;17.88;11.82;;;;;;;0.48;100.00;62047.66;5054395;28;20224;-77
2022/03/08 07:25:19;;;;;;;25.80;16.97;;;;;;;0.45;100.00;62047.09;5052459;28;21085;-73
2022/03/08 07:27:46;;;;;;;20.48;13.43;;;;;;;1.03;100.00;62104.06;5051274;28;20256;-74
2022/03/08 07:30:13;;;;;;;22.67;13.60;;;;;;;1.26;100.00;62132.66;5050944;28;20198;-74
2022/03/08 07:32:41;;;;;;;19.60;11.95;;;;;;;1.33;100.00;62134.81;5046018;28;20256;-73
2022/03/08 07:35:09;;;;;;;20.42;13.00;;;;;;;1.43;100.00;62145.09;5042436;28;20210;-73
2022/03/08 07:37:37;;;;;;;16.50;11.10;;;;;;;1.38;100.00;62139.97;5041870;28;20258;-72
2022/03/08 07:40:06;;;;;;;16.30;10.43;;;;;;;1.35;100.00;62136.88;5045006;28;20546;-73
2022/03/08 07:42:33;;;;;;;16.35;10.85;;;;;;;1.41;100.00;62147.53;5043669;28;20457;-72
2022/03/08 07:45:01;;;;;;;16.20;10.80;;;;;;;1.57;100.00;62158.97;5043957;28;20479;-73
2022/03/08 07:47:27;;;;;;;15.48;10.52;;;;;;;1.37;100.00;62140.94;5044726;28;20226;-73
2022/03/08 07:49:56;;;;;;;19.75;11.77;;;;;;;1.22;100.00;62123.03;5044852;28;20198;-73
2022/03/08 07:52:23;;;;;;;15.48;10.57;;;;;;;0.91;100.00;62091.75;5043849;28;20421;-73
2022/03/08 07:54:50;;;;;;;14.88;11.07;;;;;;;1.26;100.00;62125.13;5044652;28;20218;-73
2022/03/08 07:57:17;;;;;;;13.57;9.20;;;;;;;0.89;100.00;62087.72;5044674;28;20450;-73
2022/03/08 07:59:43;;;;;;;14.68;10.45;;;;;;;1.08;100.00;62112.22;5042953;28;20218;-72
2022/03/08 08:02:10;;;;;;;13.70;9.45;;;;;;;1.33;100.00;62136.84;5043669;28;20206;-73
2022/03/08 08:04:37;;;;;;;15.40;10.32;;;;;;;1.32;100.00;62136.31;5043091;28;20213;-71
2022/03/08 08:07:06;;;;;;;13.57;9.18;;;;;;;1.37;100.00;62138.94;5043297;28;20222;-73
2022/03/08 08:09:34;;;;;;;16.23;10.63;;;;;;;1.59;100.00;62161.00;5043117;28;20574;-72
2022/03/08 08:12:01;;;;;;;16.33;10.02;;;;;;;1.70;100.00;62170.31;5042995;28;20460;-72
2022/03/08 08:14:28;;;;;;;14.52;10.25;;;;;;;1.46;100.00;62148.19;5042520;28;20190;-72
2022/03/08 08:16:55;;;;;;;17.70;10.70;;;;;;;1.30;100.00;62134.25;5043607;28;20233;-71
2022/03/08 08:19:22;;;;;;;13.60;9.85;;;;;;;1.25;100.00;62131.13;5042730;28;20252;-72
2022/03/08 08:21:49;;;;;;;15.25;10.02;;;;;;;1.32;100.00;62133.81;5043607;28;20245;-72
2022/03/08 08:24:17;;;;;;;12.13;9.52;;;;;;;1.21;100.00;62124.53;5043731;28;20324;-72
2022/03/08 08:26:44;;;;;;;14.25;9.77;;;;;;;1.16;100.00;62120.41;5040269;28;20222;-73
2022/03/08 08:29:11;;;;;;;15.95;10.02;;;;;;;1.21;100.00;62120.00;5041523;28;20198;-72
2022/03/08 08:31:38;;;;;;;15.10;9.73;;;;;;;1.01;100.00;62104.50;5036293;28;20256;-73
2022/03/08 08:34:05;;;;;;;18.85;10.55;;;;;;;1.07;100.00;62108.16;5042577;28;20205;-72
2022/03/08 08:36:32;;;;;;;16.13;10.23;;;;;;;1.10;99.81;62114.25;5042004;28;20229;-73
2022/03/08 08:38:59;;;;;;;13.63;9.18;;;;;;;0.97;99.51;62098.41;5039947;28;20597;-71
2022/03/08 08:41:27;;;;;;;14.00;10.10;;;;;;;0.98;99.76;62099.44;5036766;28;20318;-71
2022/03/08 08:43:54;;;;;;;13.10;9.88;;;;;;;1.06;98.99;62110.16;5032181;28;20202;-73
2022/03/08 08:46:21;;;;;;;18.13;10.38;;;;;;;0.97;99.15;62097.91;5036909;28;20530;-72
2022/03/08 08:48:48;;;;;;;17.90;10.48;;;;;;;0.99;99.07;62102.97;5042737;28;20371;-72
2022/03/08 08:51:15;;;;;;;16.23;11.05;;;;;;;0.99;99.57;62100.47;5040129;28;20498;-72
2022/03/08 08:53:41;;;;;;;17.63;11.15;;;;;;;1.09;99.70;62110.22;5042463;28;20338;-72
2022/03/08 08:56:08;;;;;;;12.68;8.55;;;;;;;1.01;99.21;62104.50;5042807;28;20464;-72
2022/03/08 08:58:36;;;;;;;15.75;10.18;;;;;;;1.09;98.65;62110.72;5042966;28;20229;-72
2022/03/08 09:01:03;;;;;;;14.43;9.25;;;;;;;0.77;99.23;62077.41;5042988;28;20229;-73
2022/03/08 09:03:30;;;;;;;19.27;11.25;;;;;;;0.61;100.00;62061.50;5041463;28;20234;-72
2022/03/08 09:05:57;;;;;;;16.73;10.18;;;;;;;0.74;100.00;62074.81;5041156;28;20206;-72
2022/03/08 09:08:24;;;;;;;18.35;10.48;;;;;;;0.79;100.00;62081.94;5036251;28;20244;-72
2022/03/08 09:10:52;;;;;;;15.43;10.82;;;;;;;1.00;99.82;62101.50;5041006;28;20218;-72
2022/03/08 09:13:19;;;;;;;18.83;11.93;;;;;;;1.19;97.99;62120.47;5039837;28;20225;-71
2022/03/08 09:15:47;;;;;;;13.93;10.32;;;;;;;1.14;95.49;62112.81;5036882;28;20210;-72
2022/03/08 09:18:15;;;;;;;16.35;11.23;;;;;;;1.15;94.75;62121.38;5038612;28;20256;-72
2022/03/08 09:20:42;;;;;;;19.70;12.60;;;;;;;1.31;94.75;62134.78;5023468;28;20245;-73
2022/03/08 09:23:09;;;;;;;19.85;11.77;;;;;;;1.01;95.52;62104.50;5023800;28;20282;-73
2022/03/08 09:25:36;;;;;;;20.73;12.60;;;;;;;1.17;96.16;62116.41;5032716;28;20202;-73
2022/03/08 09:28:05;;;;;;;22.10;11.88;;;;;;;1.57;95.23;62163.97;5042621;28;20229;-73
2022/03/08 09:30:32;;;;;;;18.92;12.35;;;;;;;1.53;94.12;62157.34;5043074;28;20261;-73
2022/03/08 09:33:01;;;;;;;17.73;12.15;;;;;;;1.63;93.03;62165.09;5043442;28;20224;-71
2022/03/08 09:35:28;;;;;;;18.77;12.77;;;;;;;1.45;93.06;62147.13;5045468;28;20257;-72
2022/03/08 09:37:56;;;;;;;19.38;11.60;;;;;;;1.00;93.95;62098.97;5042833;28;20238;-72
2022/03/08 09:40:24;;;;;;;17.55;10.45;;;;;;;1.65;94.67;62167.16;5041770;28;20217;-74
2022/03/08 09:42:51;;;;;;;15.63;11.25;;;;;;;1.75;90.44;62179.94;5042154;28;20264;-71
2022/03/08 09:45:19;;;;;;;17.70;11.07;;;;;;;1.81;89.67;62184.09;5042427;28;20503;-72
2022/03/08 09:47:46;;;;;;;18.45;10.63;;;;;;;1.85;88.80;62185.16;5022955;28;20231;-71
2022/03/08 09:50:15;;;;;;;19.98;10.82;;;;;;;1.19;92.01;62118.47;5023565;28;20203;-72
2022/03/08 09:52:42;;;;;;;18.20;11.13;;;;;;;0.87;94.28;62088.16;5035441;28;20221;-71
2022/03/08 09:55:12;;;;;;;22.73;13.27;;;;;;;1.32;93.83;62130.78;5045928;28;20269;-72
2022/03/08 09:57:39;;;;;;;22.92;13.20;;;;;;;1.64;91.39;62163.63;5048390;28;20560;-71
2022/03/08 10:00:09;;;;;;;18.88;12.27;;;;;;;1.82;89.06;62182.09;5054632;28;20209;-71
2022/03/08 10:02:45;;;;;;;19.27;12.10;;;;;;;1.99;88.36;62200.06;5057158;28;20214;-71
2022/03/08 10:05:11;;;;;;;23.23;13.20;;;;;;;1.99;88.02;62202.56;5055341;28;20198;-71
2022/03/08 10:07:40;;;;;;;17.77;10.73;;;;;;;1.94;86.71;62199.97;5050653;28;20222;-70
2022/03/08 10:10:07;;;;;;;18.95;12.50;;;;;;;1.73;86.95;62177.88;5048772;28;20206;-71
2022/03/08 10:12:34;;;;;;;22.33;13.15;;;;;;;2.10;87.92;62213.88;5047499;28;20217;-71
2022/03/08 10:15:17;;;;;;;20.83;13.30;;;;;;;2.26;86.45;62229.78;5047610;28;20198;-71
2022/03/08 10:17:44;;;;;;;19.90;13.35;;;;;;;1.82;85.60;62185.13;5045857;28;20297;-72
2022/03/08 10:20:12;;;;;;;21.55;13.43;;;;;;;1.68;85.84;62170.75;5046597;28;20222;-71
2022/03/08 10:22:42;;;;;;;21.52;12.05;;;;;;;1.70;85.95;62172.28;5047357;28;20225;-71
2022/03/08 10:25:13;;;;;;;24.27;14.65;;;;;;;1.80;87.09;62185.56;5048341;28;20194;-72
2022/03/08 10:27:43;;;;;;;24.55;12.65;;;;;;;1.94;87.06;62201.94;5047345;28;20245;-72
2022/03/08 10:30:13;;;;;;;24.80;13.65;;;;;;;2.24;85.77;62230.25;5048459;28;20209;-71
2022/03/08 10:32:41;;;;;;;19.77;12.98;;;;;;;2.30;84.07;62236.91;5046871;28;20218;-71
2022/03/08 10:35:10;;;;;;;26.27;14.60;;;;;;;2.18;84.59;62219.06;5046612;28;20202;-71
2022/03/08 10:37:40;;;;;;;21.02;13.05;;;;;;;2.07;84.26;62210.28;5049103;28;20508;-70
2022/03/08 10:40:09;;;;;;;20.35;13.35;;;;;;;2.20;85.23;62221.13;5048992;28;20230;-71
2022/03/08 10:42:38;;;;;;;18.42;11.98;;;;;;;2.15;83.30;62214.00;5050309;28;20226;-71
2022/03/08 10:45:07;;;;;;;19.60;12.52;;;;;;;2.07;84.54;62212.78;5046654;28;20209;-71
2022/03/08 10:47:42;;;;;;;18.08;11.48;;;;;;;2.23;83.69;62229.22;5047564;28;20222;-71
2022/03/08 10:50:11;;;;;;;21.48;13.68;;;;;;;2.52;83.71;62259.00;5045519;28;20239;-72
2022/03/08 10:52:42;;;;;;;25.98;13.60;;;;;;;2.46;82.93;62249.81;5039782;28;20218;-72
2022/03/08 10:55:11;;;;;;;19.70;13.30;;;;;;;1.91;83.74;62196.38;5048457;28;20216;-71
2022/03/08 10:57:39;;;;;;;23.55;13.55;;;;;;;1.89;85.26;62191.78;5045639;28;20600;-71
2022/03/08 11:00:11;;;;;;;20.13;13.35;;;;;;;2.31;83.83;62237.44;5047115;28;20208;-71
2022/03/08 11:02:47;;;;;;;16.55;10.70;;;;;;;2.11;83.56;62219.91;5047043;28;20222;-70
2022/03/08 11:05:14;;;;;;;23.30;14.05;;;;;;;1.93;86.96;62196.41;5045551;28;20202;-71
2022/03/08 11:07:43;;;;;;;20.17;12.98;;;;;;;1.37;88.72;62138.41;5048683;28;20221;-70
2022/03/08 11:10:12;;;;;;;21.20;12.45;;;;;;;1.62;87.09;62169.63;5049058;28;20212;-72
2022/03/08 11:12:40;;;;;;;24.08;13.85;;;;;;;1.92;87.70;62194.88;5046529;28;20221;-71
2022/03/08 11:15:10;;;;;;;25.42;13.68;;;;;;;2.19;84.64;62223.09;5045906;28;20240;-71
2022/03/08 11:17:39;;;;;;;20.50;13.18;;;;;;;2.41;83.67;62245.19;5044889;28;20256;-71
2022/03/08 11:20:08;;;;;;;21.42;13.32;;;;;;;2.62;83.14;62264.25;5045318;28;20202;-72
2022/03/08 11:22:36;;;;;;;23.30;13.32;;;;;;;2.62;81.91;62266.25;5042316;28;20218;-71